Hauptseite
METAR-TAF:

METAR-TAF

Flughäfen :

Flughafen Bahrain

Bahrain, Bahrain

Breite: 26-16N, Länge: 050-39E, Höhe: 2 m

Beobachtung

Neuester Wetterbericht von vor 14 Minuten, um 09:30 UTC
Wind 8 kt aus Ost
Temperatur 36°C
Luftfeuchtigkeit 60%
Luftdruck 1006 hPa
Sichtweite 10 km oder mehr
keine Wolken unter 1500 m und keine Kumulonimbus oder Gewitterwolken

METAR: OBBI 190930Z 09008KT CAVOK 36/27 Q1006 NOSIG

Zeit: 12:44 (09:44 UTC)

Prognose

Neuester Wetterbericht von vor 4 Stunden und 44 Minuten, um 05:00 UTC
Gültige Prognose vom 19 um 06 UTC bis 20 um 12 UTC
Wind 5 kt aus unterschiedlichen Richtungen
Sichtweite 10 km oder mehr
keine Wolken unter 1500 m und keine Kumulonimbus oder Gewitterwolken
Wahrscheinlichkeit 30% :
Zeitweise
vom 19 um 22 UTC bis 20 um 06 UTC
Sichtweite: 4000 m
trockener Dunst

TAF: OBBI 190500Z 1906/2012 VRB05KT CAVOK PROB30 TEMPO 1922/2006 4000 HZ NSC

Wetterbeobachtungen und Prognosen von mehr als 4000 Flughäfen (METAR und TAF Bericht).

Die verfügbaren Stationen werden durch gelbe und rote Markierungen auf der Karte dargestellt.

Führen Sie die Maus auf sie, um den Namen der Station zu sehen.

Darauf klicken, um die Beobachtung von Wetterbeobachtungen und Prognosen zu sehen.

Um die Karte zu ändern : klicken Sie auf den grünen Tasten mit einem schwarzen Kreuz Zum Vergrößern, auf den grünen Button mit einem Gedankenstrich zu verkleinern, oder auf die grünen Pfeile für benachbarte Karten.


METAR-TAF: